Time;durP1;ratioP1;P1;durP2;ratioP2;P2;SDS_P1;SDS_P2;PMS_P1;PMS_P2;Temp;Humidity;BMP_temperature;BMP_pressure;BME280_temperature;BME280_humidity;BME280_pressure;Samples;Min_cycle;Max_cycle;Signal;HPM_P1;HPM_P2
2021/08/31 00:00:48;;;;;;;21.40;15.88;;;13.30;99.90;;;14.71;100.00;101125.66;6211568;23;20430;-90
2021/08/31 00:03:14;;;;;;;23.63;16.92;;;13.30;99.90;;;14.69;100.00;101126.06;6212300;23;20059;-88
2021/08/31 00:05:40;;;;;;;21.25;15.68;;;13.20;99.90;;;14.69;100.00;101125.25;6211488;23;20005;-86
2021/08/31 00:08:05;;;;;;;26.77;16.10;;;13.20;99.90;;;14.73;100.00;101131.75;6211304;23;20393;-87
2021/08/31 00:10:31;;;;;;;21.05;15.85;;;13.30;99.90;;;14.76;100.00;101117.75;6211311;23;20020;-89
2021/08/31 00:12:57;;;;;;;25.60;18.45;;;13.30;99.90;;;14.76;100.00;101126.19;6211581;23;20399;-88
2021/08/31 00:15:23;;;;;;;23.80;16.63;;;13.20;99.90;;;14.74;100.00;101127.72;6211113;23;20028;-88
2021/08/31 00:17:50;;;;;;;22.15;15.80;;;13.30;99.90;;;14.68;100.00;101132.88;6187934;23;20009;-89
2021/08/31 00:20:17;;;;;;;22.58;17.70;;;13.20;99.90;;;14.66;100.00;101138.06;6186159;23;20009;-85
2021/08/31 00:22:43;;;;;;;22.38;15.80;;;13.10;99.90;;;14.63;100.00;101138.00;6188220;23;20013;-89
2021/08/31 00:25:10;;;;;;;23.75;17.42;;;13.10;99.90;;;14.59;100.00;101135.09;6214584;23;20387;-88
2021/08/31 00:27:36;;;;;;;23.90;17.83;;;13.10;99.90;;;14.55;100.00;101150.28;6191359;23;20031;-87
2021/08/31 00:30:06;;;;;;;20.23;15.38;;;13.10;99.90;;;14.52;100.00;101145.41;6214609;23;20009;-86
2021/08/31 00:32:32;;;;;;;23.75;17.40;;;13.10;99.90;;;14.48;100.00;101150.16;6214977;23;20015;-87
2021/08/31 00:34:58;;;;;;;28.25;18.27;;;13.00;99.90;;;14.49;100.00;101151.75;6197651;23;20005;-88
2021/08/31 00:37:23;;;;;;;24.80;16.88;;;13.00;99.90;;;14.49;100.00;101149.78;6203671;23;20009;-87
2021/08/31 00:39:49;;;;;;;26.85;18.98;;;13.00;99.90;;;14.51;100.00;101143.78;6213626;23;20013;-88
2021/08/31 00:42:15;;;;;;;24.65;17.08;;;13.00;99.90;;;14.52;100.00;101140.59;6212434;23;20009;-88
2021/08/31 00:44:41;;;;;;;22.85;16.83;;;13.00;99.90;;;14.53;100.00;101152.66;6214276;23;20016;-89
2021/08/31 00:47:07;;;;;;;36.35;21.42;;;13.00;99.90;;;14.52;100.00;101151.03;6190069;23;20005;-86
2021/08/31 00:49:33;;;;;;;27.13;18.58;;;13.00;99.90;;;14.49;100.00;101154.56;6192719;23;20012;-88
2021/08/31 00:52:00;;;;;;;33.72;20.65;;;13.10;99.90;;;14.47;100.00;101156.97;6191550;23;20039;-85
2021/08/31 00:54:29;;;;;;;28.40;19.35;;;13.00;99.90;;;14.47;100.00;101151.34;6215352;23;20047;-86
2021/08/31 00:57:07;;;;;;;24.65;17.92;;;13.00;99.90;;;14.47;100.00;101149.34;6214999;23;20016;-87
2021/08/31 00:59:33;;;;;;;30.40;20.20;;;13.00;99.90;;;14.46;100.00;101147.72;6191661;23;20009;-85
2021/08/31 01:02:00;;;;;;;25.00;18.20;;;13.10;99.90;;;14.47;100.00;101151.34;6215605;23;20013;-86
2021/08/31 01:04:29;;;;;;;25.15;18.73;;;13.00;99.90;;;14.50;100.00;101154.22;6215619;23;20009;-89
2021/08/31 01:06:58;;;;;;;25.90;18.67;;;13.10;99.90;;;14.54;100.00;101163.53;6216463;23;20008;-87
2021/08/31 01:09:27;;;;;;;24.50;17.75;;;13.00;99.90;;;14.60;100.00;101164.03;6193055;23;20001;-88
2021/08/31 01:11:57;;;;;;;26.48;19.33;;;13.20;99.90;;;14.67;100.00;101167.78;6216547;23;20463;-86
2021/08/31 01:14:25;;;;;;;29.48;18.40;;;13.20;99.90;;;14.73;100.00;101162.69;6218671;23;20005;-90
2021/08/31 01:16:52;;;;;;;23.88;18.08;;;13.30;99.90;;;14.80;100.00;101156.38;6196298;23;20016;-86
2021/08/31 01:19:29;;;;;;;26.67;18.83;;;13.20;99.90;;;14.85;100.00;101168.13;6223500;23;19997;-84
2021/08/31 01:22:05;;;;;;;30.90;19.55;;;13.30;99.90;;;14.87;100.00;101170.53;6187842;23;20024;-85
2021/08/31 01:24:31;;;;;;;25.63;18.15;;;13.30;99.90;;;14.90;100.00;101169.81;6213329;23;20028;-90
2021/08/31 01:27:00;;;;;;;25.85;16.65;;;13.40;99.90;;;14.90;100.00;101167.00;6213318;23;20023;-87
2021/08/31 01:29:28;;;;;;;30.52;19.05;;;13.40;99.90;;;14.93;100.00;101166.25;6189598;23;20280;-86
2021/08/31 01:31:55;;;;;;;26.67;18.92;;;13.40;99.90;;;14.95;100.00;101169.50;6188745;23;20150;-87
2021/08/31 01:34:22;;;;;;;24.30;17.77;;;13.40;99.90;;;14.96;100.00;101169.09;6213902;23;20009;-90
2021/08/31 01:36:48;;;;;;;26.63;18.00;;;13.40;99.90;;;14.94;100.00;101167.84;6214742;23;20371;-86
2021/08/31 01:39:14;;;;;;;21.83;16.85;;;13.40;99.90;;;14.90;100.00;101164.97;6190301;23;20005;-88
2021/08/31 01:41:40;;;;;;;25.67;16.85;;;13.40;99.90;;;14.89;100.00;101166.19;6213164;23;20083;-87
2021/08/31 01:44:06;;;;;;;24.63;18.23;;;13.40;99.90;;;14.88;100.00;101174.97;6189900;23;20089;-86
2021/08/31 01:46:32;;;;;;;24.00;17.95;;;13.40;99.90;;;14.86;100.00;101166.94;6214133;23;20009;-85
2021/08/31 01:48:58;;;;;;;24.85;16.15;;;13.40;99.90;;;14.86;100.00;101171.75;6190046;23;20027;-85
2021/08/31 01:51:24;;;;;;;23.80;17.67;;;13.40;99.90;;;14.84;100.00;101174.09;6190092;23;20052;-86
2021/08/31 01:53:50;;;;;;;29.65;19.38;;;13.30;99.90;;;14.87;100.00;101181.78;6213498;23;20013;-84
2021/08/31 01:56:16;;;;;;;28.50;19.52;;;13.30;99.90;;;14.92;100.00;101178.69;6188351;23;20103;-87
2021/08/31 01:58:42;;;;;;;27.08;19.45;;;13.40;99.90;;;14.94;100.00;101174.28;6214231;23;20435;-86
2021/08/31 02:01:08;;;;;;;29.90;21.15;;;13.40;99.90;;;14.95;100.00;101175.94;6213434;23;20008;-87
2021/08/31 02:03:34;;;;;;;32.75;22.20;;;13.40;99.90;;;14.99;100.00;101176.81;6190434;23;20004;-90
2021/08/31 02:06:00;;;;;;;28.10;19.98;;;13.40;99.90;;;14.99;100.00;101182.44;6213906;23;20016;-88
2021/08/31 02:08:26;;;;;;;28.52;20.50;;;13.50;99.90;;;14.98;100.00;101175.19;6214137;23;20045;-89
2021/08/31 02:10:52;;;;;;;29.85;21.23;;;13.40;99.90;;;14.93;100.00;101169.84;6214266;23;20381;-90
2021/08/31 02:13:18;;;;;;;26.17;19.17;;;13.40;99.90;;;14.91;100.00;101174.22;6214116;23;20009;-90
2021/08/31 02:15:44;;;;;;;30.40;21.92;;;13.40;99.90;;;14.86;100.00;101175.38;6189746;23;20016;-89
2021/08/31 02:18:10;;;;;;;34.22;20.70;;;13.40;99.90;;;14.83;100.00;101183.75;6214867;23;20009;-89
2021/08/31 02:20:36;;;;;;;30.63;20.75;;;13.30;99.90;;;14.82;100.00;101182.94;6214706;23;20009;-91
2021/08/31 02:23:04;;;;;;;29.92;20.77;;;13.30;99.90;;;14.80;100.00;101184.50;6191147;23;20021;-91
2021/08/31 02:25:32;;;;;;;30.13;20.42;;;13.30;99.90;;;14.77;100.00;101177.59;6216513;23;20009;-88
2021/08/31 02:27:58;;;;;;;29.98;21.30;;;13.30;99.90;;;14.75;100.00;101183.59;6217315;23;20005;-91
2021/08/31 02:30:25;;;;;;;30.08;20.15;;;13.20;99.90;;;14.72;100.00;101186.34;6218567;23;20016;-91
2021/08/31 02:32:51;;;;;;;27.02;18.95;;;13.20;99.90;;;14.70;100.00;101183.91;6219522;23;20001;-92
2021/08/31 02:35:19;;;;;;;24.45;18.90;;;13.20;99.90;;;14.67;100.00;101189.47;6220589;23;20009;-90
2021/08/31 02:37:45;;;;;;;31.63;20.75;;;13.20;99.90;;;14.62;100.00;101175.72;6220839;23;20005;-89
2021/08/31 02:40:12;;;;;;;27.45;19.35;;;13.00;99.90;;;14.54;100.00;101173.97;6190320;23;20324;-84
2021/08/31 02:42:38;;;;;;;31.50;21.95;;;13.00;99.90;;;14.48;100.00;101172.66;6191238;23;20013;-85
2021/08/31 02:45:05;;;;;;;29.60;21.83;;;13.00;99.90;;;14.40;100.00;101179.28;6216764;23;20013;-87
2021/08/31 02:47:31;;;;;;;26.00;18.55;;;12.90;99.90;;;14.31;100.00;101168.25;6221000;23;20009;-87
2021/08/31 02:49:57;;;;;;;27.30;19.23;;;12.80;99.90;;;14.25;100.00;101172.56;6206545;23;20044;-82
2021/08/31 02:52:23;;;;;;;30.75;21.67;;;12.80;99.90;;;14.22;100.00;101174.09;6217348;23;20024;-87
2021/08/31 02:54:49;;;;;;;32.50;20.27;;;12.70;99.90;;;14.18;100.00;101178.84;6213063;23;20060;-87
2021/08/31 02:57:15;;;;;;;29.23;20.25;;;12.70;99.90;;;14.14;100.00;101171.50;6213578;23;20076;-89
2021/08/31 02:59:41;;;;;;;32.13;20.85;;;12.60;99.90;;;14.11;100.00;101178.69;6189276;23;20032;-89
2021/08/31 03:02:07;;;;;;;29.92;20.95;;;12.60;99.90;;;14.11;100.00;101178.69;6212514;23;20081;-88
2021/08/31 03:04:42;;;;;;;30.80;21.17;;;12.60;99.90;;;14.09;100.00;101175.44;6187472;23;20013;-89
2021/08/31 03:07:13;;;;;;;32.85;21.52;;;12.60;99.90;;;14.06;100.00;101181.78;6212704;23;20017;-85
2021/08/31 03:09:40;;;;;;;32.47;21.45;;;12.60;99.90;;;14.06;100.00;101193.00;6212398;23;20009;-88
2021/08/31 03:12:07;;;;;;;32.50;22.65;;;12.60;99.90;;;14.06;100.00;101195.81;6213067;23;20450;-87
2021/08/31 03:14:33;;;;;;;38.65;24.55;;;12.60;99.90;;;14.07;100.00;101199.44;6212746;23;20038;-88
2021/08/31 03:16:59;;;;;;;32.97;22.13;;;12.60;99.90;;;14.06;100.00;101193.00;6212069;23;20016;-88
2021/08/31 03:19:26;;;;;;;33.88;23.10;;;12.60;99.90;;;14.05;100.00;101196.19;6186792;23;20009;-88
2021/08/31 03:21:58;;;;;;;35.05;24.00;;;12.60;99.90;;;14.02;100.00;101208.19;6186904;23;20387;-90
2021/08/31 03:24:26;;;;;;;35.90;23.83;;;12.60;99.90;;;13.99;100.00;101203.31;6186272;23;20005;-88
2021/08/31 03:26:53;;;;;;;36.85;23.73;;;12.60;99.90;;;13.98;100.00;101201.66;6187008;23;20032;-88
2021/08/31 03:29:19;;;;;;;34.25;21.85;;;12.50;99.90;;;14.02;100.00;101208.19;6211203;23;20070;-86
2021/08/31 03:31:46;;;;;;;35.28;22.20;;;12.60;99.90;;;14.05;100.00;101208.25;6187176;23;20386;-89
2021/08/31 03:34:13;;;;;;;31.25;20.85;;;12.60;99.90;;;14.09;100.00;101209.16;6211671;23;20021;-88
2021/08/31 03:36:39;;;;;;;30.73;19.17;;;12.60;99.90;;;14.13;100.00;101214.81;6212002;23;20013;-87
2021/08/31 03:39:06;;;;;;;36.90;23.42;;;12.70;99.90;;;14.21;100.00;101211.00;6212130;23;20040;-83
2021/08/31 03:41:32;;;;;;;30.95;21.98;;;12.70;99.90;;;14.29;100.00;101224.00;6212373;23;20015;-85
2021/08/31 03:43:58;;;;;;;35.50;22.90;;;12.80;99.90;;;14.37;100.00;101220.19;6188649;23;20327;-88
2021/08/31 03:46:24;;;;;;;33.45;23.00;;;12.80;99.90;;;14.47;100.00;101221.59;6211492;23;20005;-88
2021/08/31 03:48:50;;;;;;;36.88;24.95;;;12.90;99.90;;;14.55;100.00;101226.16;6211264;23;20005;-88
2021/08/31 03:51:16;;;;;;;34.08;22.88;;;13.00;99.90;;;14.60;100.00;101220.25;6188558;23;20005;-88
2021/08/31 03:53:42;;;;;;;34.45;22.48;;;13.10;99.90;;;14.64;100.00;101221.16;6188691;23;20386;-86
2021/08/31 03:56:09;;;;;;;31.58;22.83;;;13.10;99.90;;;14.67;100.00;101218.38;6212199;23;20009;-88
2021/08/31 03:58:35;;;;;;;34.72;23.00;;;13.20;99.90;;;14.71;100.00;101218.47;6212340;23;20331;-87
2021/08/31 04:01:01;;;;;;;32.25;20.92;;;13.20;99.90;;;14.72;100.00;101222.91;6187537;23;20032;-89
2021/08/31 04:03:27;;;;;;;32.17;22.02;;;13.20;99.90;;;14.72;100.00;101220.09;6213604;23;20092;-89
2021/08/31 04:05:53;;;;;;;31.35;21.77;;;13.20;99.90;;;14.72;100.00;101223.72;6213564;23;20400;-89
2021/08/31 04:08:18;;;;;;;33.00;21.63;;;13.20;99.90;;;14.73;100.00;101221.72;6190451;23;20024;-91
2021/08/31 04:10:44;;;;;;;36.88;22.27;;;13.20;99.90;;;14.75;100.00;101219.34;6213783;23;20005;-88
2021/08/31 04:13:12;;;;;;;32.60;22.55;;;13.20;99.90;;;14.78;100.00;101224.22;6214194;23;20009;-86
2021/08/31 04:15:42;;;;;;;32.83;22.35;;;13.20;99.90;;;14.83;100.00;101228.75;6189818;23;20080;-90
2021/08/31 04:18:08;;;;;;;37.88;24.42;;;13.30;99.90;;;14.88;100.00;101231.22;6213795;23;20009;-88
2021/08/31 04:20:36;;;;;;;35.72;23.05;;;13.30;99.90;;;14.91;100.00;101225.69;6214653;23;20032;-88
2021/08/31 04:23:03;;;;;;;34.45;21.30;;;13.40;99.90;;;14.95;100.00;101234.19;6189301;23;20051;-87
2021/08/31 04:25:29;;;;;;;31.67;21.85;;;13.40;99.90;;;14.96;100.00;101228.16;6194586;23;20009;-84
2021/08/31 04:27:55;;;;;;;28.30;20.08;;;13.50;99.90;;;14.99;100.00;101221.81;6217583;23;20005;-88
2021/08/31 04:30:21;;;;;;;27.80;19.17;;;13.50;99.90;;;14.98;100.00;101225.81;6215503;23;20001;-86
2021/08/31 04:32:47;;;;;;;31.48;20.33;;;13.50;99.90;;;14.95;100.00;101229.38;6216544;23;20005;-87
2021/08/31 04:35:12;;;;;;;33.15;20.77;;;13.40;99.90;;;14.92;100.00;101218.06;6217131;23;20009;-85
2021/08/31 04:37:39;;;;;;;35.42;21.80;;;13.40;99.90;;;14.89;100.00;101216.00;6218632;23;20013;-88
2021/08/31 04:40:06;;;;;;;37.05;22.38;;;13.40;99.90;;;14.88;100.00;101226.44;6192360;23;20493;-83
2021/08/31 04:42:32;;;;;;;32.08;22.45;;;13.30;99.90;;;14.90;100.00;101231.69;6220881;23;20429;-88
2021/08/31 04:44:57;;;;;;;30.55;20.20;;;13.40;99.90;;;14.90;100.00;101237.31;6222267;23;20015;-88
2021/08/31 04:47:23;;;;;;;35.67;22.08;;;13.40;99.90;;;14.91;100.00;101248.19;6216364;23;20016;-86
2021/08/31 04:49:49;;;;;;;30.77;20.35;;;13.40;99.90;;;14.96;100.00;101242.22;6216330;23;20028;-89
2021/08/31 04:52:15;;;;;;;29.77;20.38;;;13.40;99.90;;;15.03;100.00;101245.19;6218015;23;20016;-89
2021/08/31 04:54:41;;;;;;;41.63;25.50;;;13.50;99.90;;;15.12;100.00;101251.38;6195921;23;20359;-90
2021/08/31 04:57:07;;;;;;;34.67;23.48;;;13.60;99.90;;;15.19;100.00;101256.31;6196521;23;20033;-88
2021/08/31 04:59:33;;;;;;;28.27;19.92;;;13.60;99.90;;;15.24;100.00;101242.78;6194667;23;20013;-89
2021/08/31 05:01:59;;;;;;;35.58;21.02;;;13.70;99.90;;;15.31;100.00;101253.34;6228104;23;19997;-89
2021/08/31 05:04:29;;;;;;;37.63;23.45;;;13.70;99.90;;;15.37;100.00;101251.00;6232091;23;20020;-90
2021/08/31 05:06:58;;;;;;;37.22;23.40;;;13.80;99.90;;;15.46;100.00;101262.81;6217087;23;20065;-90
2021/08/31 05:09:26;;;;;;;37.65;23.27;;;13.90;99.90;;;15.52;100.00;101259.34;6216453;23;20005;-89
2021/08/31 05:11:53;;;;;;;40.45;23.63;;;13.90;99.90;;;15.59;100.00;101258.66;6219199;23;20485;-89
2021/08/31 05:14:19;;;;;;;33.75;22.42;;;14.00;99.90;;;15.64;100.00;101269.59;6216611;23;20009;-87
2021/08/31 05:16:45;;;;;;;34.33;23.63;;;14.00;99.90;;;15.67;100.00;101269.66;6214861;23;20020;-87
2021/08/31 05:19:15;;;;;;;39.20;24.52;;;14.00;99.90;;;15.72;100.00;101269.34;6214815;23;20529;-87
2021/08/31 05:21:43;;;;;;;31.73;22.73;;;14.10;99.90;;;15.75;100.00;101262.13;6215510;23;20112;-85
2021/08/31 05:24:09;;;;;;;43.20;24.65;;;14.10;99.90;;;15.77;100.00;101259.75;6216948;23;20009;-86
2021/08/31 05:26:35;;;;;;;38.75;23.45;;;14.10;99.90;;;15.82;100.00;101263.06;6217325;23;20016;-88
2021/08/31 05:29:01;;;;;;;33.97;22.17;;;14.20;99.90;;;15.85;100.00;101266.31;6218165;23;20530;-88
2021/08/31 05:31:27;;;;;;;39.15;25.50;;;14.20;99.90;;;15.89;100.00;101270.00;6192919;23;20439;-88
2021/08/31 05:33:52;;;;;;;40.15;24.80;;;14.20;99.90;;;15.91;100.00;101273.25;6215334;23;20028;-89
2021/08/31 05:36:18;;;;;;;36.25;23.65;;;14.20;99.90;;;15.90;100.00;101274.41;6216097;23;20431;-85
2021/08/31 05:38:44;;;;;;;38.85;24.90;;;14.30;99.90;;;15.95;100.00;101274.94;6192745;23;20022;-85
2021/08/31 05:41:10;;;;;;;41.65;26.70;;;14.30;99.90;;;15.95;100.00;101280.56;6193296;23;20013;-88
2021/08/31 05:43:36;;;;;;;46.35;26.92;;;14.30;99.90;;;15.94;100.00;101290.19;6217421;23;20005;-89
2021/08/31 05:46:01;;;;;;;39.83;24.58;;;14.30;99.90;;;15.91;100.00;101290.97;6217689;23;20090;-88
2021/08/31 05:48:27;;;;;;;46.33;28.20;;;14.30;99.90;;;15.90;100.00;101299.78;6194094;23;20001;-88
2021/08/31 05:50:53;;;;;;;50.30;28.25;;;14.30;99.90;;;15.90;100.00;101297.78;6216799;23;20012;-88
2021/08/31 05:53:19;;;;;;;46.20;27.17;;;14.30;99.90;;;15.87;100.00;101298.53;6216352;23;20059;-85
2021/08/31 05:55:45;;;;;;;48.95;28.60;;;14.30;99.90;;;15.89;100.00;101313.06;6192848;23;20030;-86
2021/08/31 05:58:10;;;;;;;39.63;24.00;;;14.30;99.90;;;15.87;100.00;101315.44;6216645;23;20020;-85
2021/08/31 06:00:36;;;;;;;38.25;24.60;;;14.20;99.90;;;15.81;100.00;101312.13;6191499;23;20009;-91
2021/08/31 06:03:02;;;;;;;41.83;25.02;;;14.20;99.90;;;15.77;100.00;101316.88;6190163;23;20328;-90
2021/08/31 06:05:28;;;;;;;37.95;23.70;;;14.10;99.90;;;15.77;100.00;101310.44;6214749;23;20009;-90
2021/08/31 06:07:54;;;;;;;40.00;22.73;;;14.20;99.90;;;15.77;100.00;101310.44;6214954;23;20016;-86
2021/08/31 06:10:20;;;;;;;43.08;25.45;;;14.10;99.90;;;15.79;100.00;101320.16;6189492;23;20051;-89
2021/08/31 06:12:46;;;;;;;47.28;26.13;;;14.10;99.90;;;15.78;100.00;101317.72;6191514;23;20008;-89
2021/08/31 06:15:12;;;;;;;54.50;28.65;;;14.20;99.90;;;15.78;100.00;101324.16;6215043;23;20016;-89
2021/08/31 06:17:40;;;;;;;53.13;29.08;;;14.20;99.90;;;15.79;100.00;101320.16;6215583;23;20435;-87
2021/08/31 06:20:09;;;;;;;53.65;28.23;;;14.20;99.90;;;15.77;100.00;101335.78;6216325;23;20035;-90
2021/08/31 12:24:58;;;;;;;8.18;5.95;;;21.90;99.90;;;24.40;50.73;101425.41;6185492;23;20021;-87
2021/08/31 12:27:24;;;;;;;10.88;5.60;;;22.20;99.90;;;25.13;49.16;101433.06;6187838;23;20039;-90
2021/08/31 12:29:54;;;;;;;8.30;6.05;;;22.70;99.20;;;25.72;48.07;101433.00;6163050;23;20073;-86
2021/08/31 12:32:31;;;;;;;8.45;5.90;;;23.20;98.70;;;26.16;46.93;101434.47;6162573;23;20012;-86
2021/08/31 12:35:26;;;;;;;8.38;5.40;;;23.70;96.80;;;26.52;47.22;101431.50;6159903;23;20454;-90
2021/08/31 12:38:17;;;;;;;7.32;5.03;;;24.10;96.40;;;26.86;46.34;101439.63;6133508;23;20051;-88
2021/08/31 12:40:53;;;;;;;10.32;4.78;;;24.40;95.60;;;26.32;44.70;101439.38;6160400;23;20105;-89
2021/08/31 12:43:22;;;;;;;6.40;4.93;;;24.10;92.50;;;25.68;46.87;101438.03;6157645;23;20013;-89
2021/08/31 12:45:57;;;;;;;9.52;4.60;;;23.60;94.00;;;24.84;47.19;101435.69;6160707;23;20013;-87
2021/08/31 12:48:45;;;;;;;9.38;4.50;;;22.90;93.30;;;24.44;49.29;101436.78;6133832;23;20041;-90
2021/08/31 12:51:12;;;;;;;9.15;4.40;;;22.50;96.00;;;24.02;48.04;101427.66;6134692;23;20006;-90
2021/08/31 12:53:45;;;;;;;6.28;4.50;;;22.20;94.00;;;24.20;50.14;101435.97;6134310;23;20017;-89
2021/08/31 12:56:15;;;;;;;5.30;3.83;;;22.20;96.90;;;24.83;48.64;101438.97;6159867;23;20347;-89
2021/08/31 12:58:46;;;;;;;8.07;4.55;;;22.60;96.30;;;25.57;47.57;101428.88;6159403;23;20009;-88
2021/08/31 13:01:16;;;;;;;5.30;4.53;;;23.00;95.60;;;25.66;46.15;101426.22;6159893;23;20371;-87
2021/08/31 13:03:53;;;;;;;5.75;4.57;;;23.30;93.80;;;25.53;46.69;101425.28;6136277;23;20016;-86
2021/08/31 13:06:43;;;;;;;6.40;4.05;;;23.30;94.30;;;24.63;49.41;101431.13;6177369;23;20032;-85
2021/08/31 13:09:18;;;;;;;6.97;4.72;;;22.70;96.00;;;24.62;50.31;101432.38;6161730;23;20009;-86
2021/08/31 13:11:51;;;;;;;8.18;4.35;;;22.60;97.20;;;24.94;48.55;101425.28;6157715;23;20005;-86
2021/08/31 13:14:26;;;;;;;7.53;3.80;;;22.80;95.80;;;25.35;47.21;101424.84;6133090;23;20005;-86
2021/08/31 13:16:56;;;;;;;5.82;4.10;;;23.10;94.60;;;25.88;45.34;101429.41;6159888;23;20016;-88
2021/08/31 13:19:24;;;;;;;6.40;3.90;;;23.60;93.10;;;26.33;45.14;101410.28;6159031;23;20013;-87
2021/08/31 13:21:53;;;;;;;7.32;3.80;;;23.90;93.20;;;26.52;45.98;101414.31;6158617;23;20428;-87
2021/08/31 13:24:20;;;;;;;8.88;3.70;;;24.10;93.60;;;26.44;43.35;101410.00;6133960;23;20163;-86
2021/08/31 13:26:50;;;;;;;5.43;3.30;;;24.20;90.60;;;26.34;43.91;101408.22;6161667;23;20073;-91
2021/08/31 13:29:17;;;;;;;8.38;3.47;;;24.20;90.40;;;26.58;43.75;101403.91;6162645;23;20113;-88
2021/08/31 13:31:45;;;;;;;5.97;3.83;;;24.20;90.20;;;26.35;42.87;101410.66;6135421;23;20415;-88
2021/08/31 13:34:11;;;;;;;4.78;3.47;;;24.20;87.50;;;26.34;43.70;101396.78;6135774;23;20021;-90
2021/08/31 13:36:41;;;;;;;7.32;3.92;;;24.00;90.00;;;26.34;43.30;101405.38;6137347;23;20020;-86
2021/08/31 13:39:10;;;;;;;6.45;3.65;;;24.10;88.50;;;26.70;42.87;101412.56;6164695;23;20009;-87
2021/08/31 13:41:37;;;;;;;5.55;3.55;;;24.20;89.20;;;26.72;43.40;101410.06;6165142;23;20151;-90
2021/08/31 13:44:05;;;;;;;5.90;3.22;;;24.20;90.00;;;27.28;42.60;101406.03;6160417;23;20383;-89
2021/08/31 13:46:35;;;;;;;5.38;3.83;;;24.60;88.60;;;27.52;41.49;101405.31;6134223;23;20005;-90
2021/08/31 13:49:03;;;;;;;5.95;3.78;;;25.00;85.50;;;27.62;40.38;101401.31;6160764;23;20440;-90
2021/08/31 13:51:30;;;;;;;5.70;3.72;;;25.00;82.80;;;27.50;40.92;101399.25;6158861;23;20024;-90
2021/08/31 13:53:57;;;;;;;6.43;3.70;;;24.80;83.30;;;26.93;42.61;101396.41;6134809;23;20009;-88
2021/08/31 13:56:23;;;;;;;4.75;3.90;;;24.50;86.10;;;26.04;44.74;101393.00;6159606;23;20141;-88
2021/08/31 13:58:49;;;;;;;10.05;3.90;;;23.90;88.60;;;25.21;46.10;101391.63;6161688;23;20032;-91
2021/08/31 14:01:15;;;;;;;7.57;4.03;;;23.20;90.10;;;24.43;47.98;101390.31;6162079;23;20005;-89
2021/08/31 14:03:43;;;;;;;6.35;3.60;;;22.60;91.60;;;23.82;50.08;101384.00;6135037;23;20009;-91
2021/08/31 14:06:09;;;;;;;5.60;3.83;;;22.00;93.50;;;23.79;50.97;101387.66;6135805;23;20025;-90
2021/08/31 14:08:35;;;;;;;4.85;3.30;;;21.90;94.80;;;24.06;50.27;101390.50;6135986;23;20009;-90
2021/08/31 14:11:01;;;;;;;5.03;3.58;;;22.00;94.90;;;24.34;48.78;101387.19;6136090;23;20005;-90
2021/08/31 14:13:27;;;;;;;4.45;3.08;;;22.20;93.70;;;24.67;45.78;101388.22;6138514;23;20005;-89
2021/08/31 14:15:53;;;;;;;4.63;3.20;;;22.30;91.60;;;24.66;45.66;101387.41;6135769;23;20013;-89
2021/08/31 14:18:19;;;;;;;4.78;3.20;;;22.50;90.80;;;24.80;46.01;101389.19;6133973;23;20009;-91
2021/08/31 14:20:45;;;;;;;6.28;3.45;;;22.60;91.40;;;24.86;46.84;101383.78;6134820;23;20336;-89
2021/08/31 14:23:11;;;;;;;5.40;3.53;;;22.70;92.20;;;24.75;46.53;101386.84;6134154;23;20052;-88
2021/08/31 14:25:37;;;;;;;4.32;2.95;;;22.60;91.20;;;24.41;47.67;101378.50;6135514;23;20029;-89
2021/08/31 14:28:04;;;;;;;4.53;3.28;;;22.50;92.20;;;24.23;48.97;101388.63;6160685;23;20010;-89
2021/08/31 14:30:30;;;;;;;5.80;3.30;;;22.20;93.70;;;23.97;49.49;101381.69;6158593;23;20088;-88
2021/08/31 14:32:56;;;;;;;5.80;3.60;;;22.00;94.10;;;23.68;50.84;101380.53;6158724;23;20009;-89
2021/08/31 14:35:22;;;;;;;5.10;3.53;;;21.70;95.40;;;23.44;52.38;101385.34;6135104;23;20017;-89
2021/08/31 14:37:48;;;;;;;5.78;3.50;;;21.50;97.40;;;23.36;53.42;101381.78;6134812;23;20061;-89
2021/08/31 14:40:15;;;;;;;8.32;4.25;;;21.40;99.00;;;23.41;53.09;101384.16;6133741;23;20009;-89
2021/08/31 14:42:43;;;;;;;5.55;3.88;;;21.50;99.00;;;23.48;51.85;101381.22;6134781;23;20080;-88
2021/08/31 14:45:12;;;;;;;6.28;3.67;;;21.50;98.00;;;23.61;50.66;101385.09;6158551;23;20006;-90
2021/08/31 14:47:40;;;;;;;4.00;3.05;;;21.60;96.40;;;23.60;49.72;101376.97;6157405;23;20095;-88
2021/08/31 14:50:10;;;;;;;10.02;3.88;;;21.60;95.70;;;23.56;49.63;101370.53;6159753;23;20379;-85
2021/08/31 14:52:37;;;;;;;6.60;4.07;;;21.60;95.10;;;23.52;51.20;101376.28;6160334;23;20317;-88
2021/08/31 14:55:06;;;;;;;5.22;3.60;;;21.70;97.00;;;23.59;50.87;101381.88;6158287;23;20155;-87
2021/08/31 14:57:32;;;;;;;4.70;3.53;;;21.60;96.20;;;23.60;51.04;101374.13;6158504;23;20013;-87
2021/08/31 14:59:58;;;;;;;5.30;3.58;;;21.70;96.80;;;23.55;50.53;101375.41;6134209;23;20019;-87
2021/08/31 15:02:24;;;;;;;7.43;4.07;;;21.70;96.50;;;23.61;50.63;101370.84;6134848;23;20005;-87
2021/08/31 15:04:51;;;;;;;7.05;4.28;;;21.70;96.10;;;23.58;50.11;101373.75;6134059;23;20005;-86
2021/08/31 15:07:17;;;;;;;7.63;3.90;;;21.70;95.80;;;23.55;50.47;101361.16;6134387;23;20010;-88
2021/08/31 15:09:43;;;;;;;6.30;3.45;;;21.70;96.20;;;23.68;50.96;101369.94;6132868;23;20013;-87
2021/08/31 15:12:10;;;;;;;4.90;3.55;;;21.70;97.00;;;23.76;50.62;101371.41;6135914;23;20482;-89
2021/08/31 15:14:35;;;;;;;5.60;3.30;;;21.80;96.60;;;23.87;51.56;101369.22;6134114;23;20293;-88
2021/08/31 15:17:04;;;;;;;6.60;3.72;;;21.90;97.80;;;23.79;50.59;101367.69;6135375;23;20033;-91
2021/08/31 15:19:30;;;;;;;5.57;3.80;;;22.00;96.30;;;23.71;50.08;101363.38;6134675;23;20006;-88
2021/08/31 15:21:56;;;;;;;5.40;3.42;;;21.90;95.80;;;23.68;50.47;101366.28;6134205;23;20415;-86
2021/08/31 15:24:25;;;;;;;5.22;3.50;;;21.90;96.30;;;23.61;51.50;101358.63;6169798;23;20016;-89
2021/08/31 15:26:50;;;;;;;7.15;3.47;;;21.70;97.50;;;23.46;50.80;101360.91;6143558;23;20016;-86
2021/08/31 15:29:16;;;;;;;4.97;3.50;;;21.60;96.50;;;23.39;50.22;101360.97;6135004;23;20001;-89
2021/08/31 15:31:43;;;;;;;5.25;3.05;;;21.50;95.60;;;23.24;50.10;101356.69;6135386;23;20024;-88
2021/08/31 15:34:10;;;;;;;8.25;3.47;;;21.40;95.50;;;23.26;50.19;101359.91;6161299;23;20021;-88
2021/08/31 15:36:41;;;;;;;5.63;3.17;;;21.40;95.80;;;23.25;50.63;101361.16;6157129;23;20302;-90
2021/08/31 15:39:08;;;;;;;6.55;3.40;;;21.40;96.00;;;23.31;51.01;101365.13;6133551;23;20023;-88
2021/08/31 15:41:39;;;;;;;5.75;3.03;;;21.40;96.50;;;23.28;50.80;101363.13;6164466;23;20005;-88
2021/08/31 15:44:08;;;;;;;4.68;3.72;;;21.40;96.70;;;23.22;51.26;101355.50;6136920;23;20065;-90
2021/08/31 15:46:36;;;;;;;5.38;3.10;;;21.30;97.20;;;23.23;52.22;101357.13;6137608;23;20014;-89
2021/08/31 15:49:07;;;;;;;5.63;3.20;;;21.30;98.10;;;23.06;51.69;101354.06;6161831;23;20006;-89
2021/08/31 15:51:35;;;;;;;6.22;3.55;;;21.30;97.50;;;23.00;51.79;101358.63;6167806;23;20005;-86
2021/08/31 15:54:00;;;;;;;7.95;3.72;;;21.20;97.90;;;22.95;52.58;101347.72;6162177;23;20065;-87
2021/08/31 15:56:26;;;;;;;7.90;3.67;;;21.20;98.50;;;23.02;52.35;101356.16;6138311;23;20380;-89
2021/08/31 15:58:52;;;;;;;5.45;3.47;;;21.20;98.60;;;23.01;53.49;101353.75;6163083;23;20017;-88
2021/08/31 16:01:18;;;;;;;6.10;3.55;;;21.10;99.90;;;22.92;53.86;101362.00;6159289;23;20012;-91
2021/08/31 16:03:44;;;;;;;4.55;3.80;;;21.10;99.90;;;22.83;53.27;101353.94;6133204;23;20009;-88